sensor_id;sensor_type;location;lat;lon;timestamp;pressure;altitude;pressure_sealevel;temperature;humidity
34103;BME280;20381;54.498;18.206;2022-08-03T00:01:04;99882.97;;;14.00;72.66
34103;BME280;20381;54.498;18.206;2022-08-03T00:03:30;99877.89;;;14.04;72.72
34103;BME280;20381;54.498;18.206;2022-08-03T00:05:58;99881.65;;;14.07;72.68
34103;BME280;20381;54.498;18.206;2022-08-03T00:08:24;99871.15;;;14.07;72.69
34103;BME280;20381;54.498;18.206;2022-08-03T00:10:51;99865.34;;;14.09;72.73
34103;BME280;20381;54.498;18.206;2022-08-03T00:13:18;99867.42;;;14.12;72.76
34103;BME280;20381;54.498;18.206;2022-08-03T00:15:44;99862.71;;;14.17;72.69
34103;BME280;20381;54.498;18.206;2022-08-03T00:18:11;99862.71;;;14.17;72.69
34103;BME280;20381;54.498;18.206;2022-08-03T00:20:38;99865.16;;;14.20;72.81
34103;BME280;20381;54.498;18.206;2022-08-03T00:23:05;99868.94;;;14.23;72.76
34103;BME280;20381;54.498;18.206;2022-08-03T00:25:33;99863.86;;;14.27;72.89
34103;BME280;20381;54.498;18.206;2022-08-03T00:28:05;99856.74;;;14.29;72.86
34103;BME280;20381;54.498;18.206;2022-08-03T00:30:29;99854.84;;;14.31;72.89
34103;BME280;20381;54.498;18.206;2022-08-03T00:32:57;99858.44;;;14.37;72.94
34103;BME280;20381;54.498;18.206;2022-08-03T00:35:24;99856.54;;;14.39;72.87
34103;BME280;20381;54.498;18.206;2022-08-03T00:37:51;99853.36;;;14.41;72.98
34103;BME280;20381;54.498;18.206;2022-08-03T00:40:18;99848.86;;;14.43;73.02
34103;BME280;20381;54.498;18.206;2022-08-03T00:43:00;99851.30;;;14.46;73.04
34103;BME280;20381;54.498;18.206;2022-08-03T00:45:31;99847.53;;;14.50;73.02
34103;BME280;20381;54.498;18.206;2022-08-03T00:47:59;99846.81;;;14.55;73.12
34103;BME280;20381;54.498;18.206;2022-08-03T00:50:29;99846.19;;;14.59;73.18
34103;BME280;20381;54.498;18.206;2022-08-03T00:52:58;99850.22;;;14.65;73.17
34103;BME280;20381;54.498;18.206;2022-08-03T00:55:26;99845.12;;;14.69;73.19
34103;BME280;20381;54.498;18.206;2022-08-03T00:57:53;99849.83;;;14.71;73.20
34103;BME280;20381;54.498;18.206;2022-08-03T01:00:23;99852.26;;;14.74;73.21
34103;BME280;20381;54.498;18.206;2022-08-03T01:02:52;99847.17;;;14.78;73.34
34103;BME280;20381;54.498;18.206;2022-08-03T01:05:20;99844.62;;;14.84;73.30
34103;BME280;20381;54.498;18.206;2022-08-03T01:08:02;99837.78;;;14.88;73.26
34103;BME280;20381;54.498;18.206;2022-08-03T01:13:47;99840.20;;;14.98;73.32
34103;BME280;20381;54.498;18.206;2022-08-03T01:25:33;99831.33;;;15.14;73.31
34103;BME280;20381;54.498;18.206;2022-08-03T01:30:28;99830.08;;;15.19;73.35
34103;BME280;20381;54.498;18.206;2022-08-03T01:33:02;99828.29;;;15.20;73.38
34103;BME280;20381;54.498;18.206;2022-08-03T01:35:40;99828.09;;;15.23;73.48
34103;BME280;20381;54.498;18.206;2022-08-03T01:38:32;99827.72;;;15.29;73.48
34103;BME280;20381;54.498;18.206;2022-08-03T01:40:55;99823.92;;;15.33;73.59
34103;BME280;20381;54.498;18.206;2022-08-03T01:43:25;99826.36;;;15.36;73.58
34103;BME280;20381;54.498;18.206;2022-08-03T01:45:53;99820.14;;;15.37;73.52
34103;BME280;20381;54.498;18.206;2022-08-03T01:48:22;99819.78;;;15.36;73.50
34103;BME280;20381;54.498;18.206;2022-08-03T01:50:50;99824.47;;;15.38;73.52
34103;BME280;20381;54.498;18.206;2022-08-03T01:53:18;99824.27;;;15.41;73.56
34103;BME280;20381;54.498;18.206;2022-08-03T01:55:47;99824.06;;;15.44;73.58
34103;BME280;20381;54.498;18.206;2022-08-03T01:58:15;99821.23;;;15.48;73.51
34103;BME280;20381;54.498;18.206;2022-08-03T02:00:44;99821.98;;;15.50;73.49
34103;BME280;20381;54.498;18.206;2022-08-03T02:03:12;99819.34;;;15.50;73.47
34103;BME280;20381;54.498;18.206;2022-08-03T02:05:40;99817.08;;;15.51;73.44
34103;BME280;20381;54.498;18.206;2022-08-03T02:08:11;99818.39;;;15.51;73.39
34103;BME280;20381;54.498;18.206;2022-08-03T02:10:40;99810.14;;;15.50;73.38
34103;BME280;20381;54.498;18.206;2022-08-03T02:13:08;99817.55;;;15.50;73.41
34103;BME280;20381;54.498;18.206;2022-08-03T02:15:36;99807.12;;;15.49;73.37
34103;BME280;20381;54.498;18.206;2022-08-03T02:18:05;99807.51;;;15.50;73.42
34103;BME280;20381;54.498;18.206;2022-08-03T02:20:33;99807.51;;;15.50;73.38
34103;BME280;20381;54.498;18.206;2022-08-03T02:23:02;99807.98;;;15.49;73.39
34103;BME280;20381;54.498;18.206;2022-08-03T02:25:29;99804.48;;;15.49;73.36
34103;BME280;20381;54.498;18.206;2022-08-03T02:28:07;99804.69;;;15.45;73.36
34103;BME280;20381;54.498;18.206;2022-08-03T02:30:38;99803.86;;;15.45;73.38
34103;BME280;20381;54.498;18.206;2022-08-03T02:33:09;99809.23;;;15.43;73.38
34103;BME280;20381;54.498;18.206;2022-08-03T02:35:38;99797.96;;;15.41;73.36
34103;BME280;20381;54.498;18.206;2022-08-03T02:38:07;99804.06;;;15.42;73.39
34103;BME280;20381;54.498;18.206;2022-08-03T02:40:35;99801.07;;;15.41;73.39
34103;BME280;20381;54.498;18.206;2022-08-03T02:43:09;99794.58;;;15.39;73.38
34103;BME280;20381;54.498;18.206;2022-08-03T02:45:41;99799.84;;;15.39;73.38
34103;BME280;20381;54.498;18.206;2022-08-03T02:48:10;99790.27;;;15.38;73.42
34103;BME280;20381;54.498;18.206;2022-08-03T02:50:38;99794.30;;;15.37;73.41
34103;BME280;20381;54.498;18.206;2022-08-03T02:53:06;99783.90;;;15.35;73.37
34103;BME280;20381;54.498;18.206;2022-08-03T02:55:34;99789.16;;;15.35;73.42
34103;BME280;20381;54.498;18.206;2022-08-03T02:58:02;99783.42;;;15.36;73.47
34103;BME280;20381;54.498;18.206;2022-08-03T03:00:30;99785.94;;;15.37;73.49
34103;BME280;20381;54.498;18.206;2022-08-03T03:03:01;99790.06;;;15.41;73.56
34103;BME280;20381;54.498;18.206;2022-08-03T03:05:29;99788.39;;;15.40;73.59
34103;BME280;20381;54.498;18.206;2022-08-03T03:07:56;99790.81;;;15.43;73.59
34103;BME280;20381;54.498;18.206;2022-08-03T03:10:24;99795.87;;;15.47;73.60
34103;BME280;20381;54.498;18.206;2022-08-03T03:12:57;99795.67;;;15.50;73.60
34103;BME280;20381;54.498;18.206;2022-08-03T03:15:25;99800.52;;;15.56;73.67
34103;BME280;20381;54.498;18.206;2022-08-03T03:17:53;99800.09;;;15.62;73.61
34103;BME280;20381;54.498;18.206;2022-08-03T03:20:21;99793.91;;;15.63;73.51
34103;BME280;20381;54.498;18.206;2022-08-03T03:22:49;99786.02;;;15.63;73.48
34103;BME280;20381;54.498;18.206;2022-08-03T03:25:17;99792.00;;;15.65;73.53
34103;BME280;20381;54.498;18.206;2022-08-03T03:27:45;99782.22;;;15.67;73.52
34103;BME280;20381;54.498;18.206;2022-08-03T03:30:12;99793.52;;;15.69;73.57
34103;BME280;20381;54.498;18.206;2022-08-03T03:32:39;99791.64;;;15.71;73.48
34103;BME280;20381;54.498;18.206;2022-08-03T03:35:06;99794.63;;;15.72;73.53
34103;BME280;20381;54.498;18.206;2022-08-03T03:37:34;99795.38;;;15.74;73.55
34103;BME280;20381;54.498;18.206;2022-08-03T03:40:01;99792.89;;;15.78;73.56
34103;BME280;20381;54.498;18.206;2022-08-03T03:42:28;99796.55;;;15.83;73.60
34103;BME280;20381;54.498;18.206;2022-08-03T03:44:55;99799.23;;;15.88;73.63
34103;BME280;20381;54.498;18.206;2022-08-03T03:47:22;99792.58;;;15.96;73.64
34103;BME280;20381;54.498;18.206;2022-08-03T03:49:49;99793.30;;;16.05;73.66
34103;BME280;20381;54.498;18.206;2022-08-03T03:52:16;99802.75;;;16.20;73.94
34103;BME280;20381;54.498;18.206;2022-08-03T03:54:44;99801.35;;;16.53;73.97
34103;BME280;20381;54.498;18.206;2022-08-03T03:57:11;99800.65;;;16.88;73.92
34103;BME280;20381;54.498;18.206;2022-08-03T03:59:39;99795.04;;;17.16;73.69
34103;BME280;20381;54.498;18.206;2022-08-03T04:02:08;99803.71;;;17.48;73.62
34103;BME280;20381;54.498;18.206;2022-08-03T04:04:36;99805.22;;;17.75;73.52
34103;BME280;20381;54.498;18.206;2022-08-03T04:07:23;99803.25;;;18.01;73.33
34103;BME280;20381;54.498;18.206;2022-08-03T04:10:20;99808.80;;;18.48;73.47
34103;BME280;20381;54.498;18.206;2022-08-03T04:13:08;99806.37;;;18.96;72.79
34103;BME280;20381;54.498;18.206;2022-08-03T04:15:37;99811.14;;;19.19;72.62
34103;BME280;20381;54.498;18.206;2022-08-03T04:18:07;99811.78;;;19.70;72.50
34103;BME280;20381;54.498;18.206;2022-08-03T04:20:37;99805.55;;;20.23;72.18
34103;BME280;20381;54.498;18.206;2022-08-03T04:23:05;99810.59;;;20.26;71.60
34103;BME280;20381;54.498;18.206;2022-08-03T04:25:34;99809.84;;;20.14;71.30
34103;BME280;20381;54.498;18.206;2022-08-03T04:28:03;99809.80;;;19.99;71.18
34103;BME280;20381;54.498;18.206;2022-08-03T04:30:32;99816.50;;;19.87;71.08
34103;BME280;20381;54.498;18.206;2022-08-03T04:33:01;99818.00;;;19.80;71.05
34103;BME280;20381;54.498;18.206;2022-08-03T04:35:28;99818.95;;;19.79;71.08
34103;BME280;20381;54.498;18.206;2022-08-03T04:38:00;99822.78;;;19.86;70.85
34103;BME280;20381;54.498;18.206;2022-08-03T04:40:35;99825.51;;;19.90;70.66
34103;BME280;20381;54.498;18.206;2022-08-03T04:43:05;99829.14;;;19.89;70.51
34103;BME280;20381;54.498;18.206;2022-08-03T04:45:34;99825.88;;;19.92;70.21
34103;BME280;20381;54.498;18.206;2022-08-03T04:48:02;99824.79;;;19.94;70.08
34103;BME280;20381;54.498;18.206;2022-08-03T04:50:30;99828.47;;;20.03;70.04
34103;BME280;20381;54.498;18.206;2022-08-03T04:52:57;99825.73;;;20.14;69.83
34103;BME280;20381;54.498;18.206;2022-08-03T04:55:25;99822.20;;;20.34;69.80
34103;BME280;20381;54.498;18.206;2022-08-03T04:57:57;99823.59;;;20.60;69.77
34103;BME280;20381;54.498;18.206;2022-08-03T05:00:24;99826.39;;;21.28;70.34
34103;BME280;20381;54.498;18.206;2022-08-03T05:02:52;99822.37;;;21.82;69.67
34103;BME280;20381;54.498;18.206;2022-08-03T05:05:19;99828.77;;;21.99;69.01
34103;BME280;20381;54.498;18.206;2022-08-03T05:07:46;99827.53;;;22.17;68.67
34103;BME280;20381;54.498;18.206;2022-08-03T05:10:13;99830.86;;;22.38;68.71
34103;BME280;20381;54.498;18.206;2022-08-03T05:12:40;99816.41;;;22.54;67.63
34103;BME280;20381;54.498;18.206;2022-08-03T05:15:07;99816.41;;;22.54;67.63
34103;BME280;20381;54.498;18.206;2022-08-03T05:17:35;99835.11;;;22.59;67.49
34103;BME280;20381;54.498;18.206;2022-08-03T05:20:02;99833.19;;;22.65;67.58
34103;BME280;20381;54.498;18.206;2022-08-03T05:22:30;99835.34;;;22.65;67.22
34103;BME280;20381;54.498;18.206;2022-08-03T05:24:56;99840.14;;;22.62;66.88
34103;BME280;20381;54.498;18.206;2022-08-03T05:27:23;99838.80;;;22.62;66.86
34103;BME280;20381;54.498;18.206;2022-08-03T05:29:49;99848.56;;;22.71;66.72
34103;BME280;20381;54.498;18.206;2022-08-03T05:32:16;99842.84;;;22.79;66.47
34103;BME280;20381;54.498;18.206;2022-08-03T05:34:43;99834.62;;;22.87;65.52
34103;BME280;20381;54.498;18.206;2022-08-03T05:37:10;99844.77;;;22.97;65.95
34103;BME280;20381;54.498;18.206;2022-08-03T05:39:37;99841.01;;;23.21;65.95
34103;BME280;20381;54.498;18.206;2022-08-03T05:42:04;99845.83;;;23.54;65.67
34103;BME280;20381;54.498;18.206;2022-08-03T05:44:30;99848.70;;;23.60;64.89
34103;BME280;20381;54.498;18.206;2022-08-03T05:46:57;99843.85;;;23.56;64.66
34103;BME280;20381;54.498;18.206;2022-08-03T05:49:24;99850.40;;;23.61;64.66
34103;BME280;20381;54.498;18.206;2022-08-03T05:51:51;99846.42;;;23.83;64.56
34103;BME280;20381;54.498;18.206;2022-08-03T05:54:17;99850.53;;;24.44;64.34
34103;BME280;20381;54.498;18.206;2022-08-03T05:56:44;99842.29;;;25.10;63.87
34103;BME280;20381;54.498;18.206;2022-08-03T05:59:10;99840.70;;;26.19;63.96
34103;BME280;20381;54.498;18.206;2022-08-03T06:01:37;99832.74;;;27.25;63.49
34103;BME280;20381;54.498;18.206;2022-08-03T06:04:04;99843.63;;;28.11;62.70
34103;BME280;20381;54.498;18.206;2022-08-03T06:06:31;99838.66;;;28.83;62.19
34103;BME280;20381;54.498;18.206;2022-08-03T06:08:57;99836.83;;;29.52;61.71
34103;BME280;20381;54.498;18.206;2022-08-03T06:11:24;99833.11;;;30.24;60.93
34103;BME280;20381;54.498;18.206;2022-08-03T06:13:51;99832.06;;;30.60;59.93
34103;BME280;20381;54.498;18.206;2022-08-03T06:16:17;99839.05;;;30.89;59.03
34103;BME280;20381;54.498;18.206;2022-08-03T06:18:44;99834.77;;;31.14;58.18
34103;BME280;20381;54.498;18.206;2022-08-03T06:21:11;99842.13;;;31.40;57.53
34103;BME280;20381;54.498;18.206;2022-08-03T06:23:38;99839.66;;;31.72;56.85
34103;BME280;20381;54.498;18.206;2022-08-03T06:26:07;99842.06;;;31.98;56.08
34103;BME280;20381;54.498;18.206;2022-08-03T06:28:33;99841.93;;;32.15;55.13
34103;BME280;20381;54.498;18.206;2022-08-03T06:31:00;99849.30;;;32.30;54.33
34103;BME280;20381;54.498;18.206;2022-08-03T06:33:28;99852.27;;;32.45;53.58
34103;BME280;20381;54.498;18.206;2022-08-03T06:35:55;99851.61;;;32.69;53.05
34103;BME280;20381;54.498;18.206;2022-08-03T06:38:21;99843.63;;;33.10;52.43
34103;BME280;20381;54.498;18.206;2022-08-03T06:40:48;99844.39;;;33.40;51.74
34103;BME280;20381;54.498;18.206;2022-08-03T06:43:15;99844.66;;;33.63;50.86
34103;BME280;20381;54.498;18.206;2022-08-03T06:45:41;99842.08;;;34.00;50.06
34103;BME280;20381;54.498;18.206;2022-08-03T06:48:09;99844.58;;;34.11;49.42
34103;BME280;20381;54.498;18.206;2022-08-03T06:50:38;99839.86;;;34.25;48.62
34103;BME280;20381;54.498;18.206;2022-08-03T06:53:07;99847.38;;;34.14;46.71
34103;BME280;20381;54.498;18.206;2022-08-03T06:55:39;99845.62;;;33.76;46.33
34103;BME280;20381;54.498;18.206;2022-08-03T06:58:08;99839.69;;;33.60;45.75
34103;BME280;20381;54.498;18.206;2022-08-03T07:00:35;99843.52;;;33.46;44.77
34103;BME280;20381;54.498;18.206;2022-08-03T07:03:02;99845.56;;;33.35;44.83
34103;BME280;20381;54.498;18.206;2022-08-03T07:05:29;99839.38;;;33.75;43.95
34103;BME280;20381;54.498;18.206;2022-08-03T07:07:58;99841.20;;;33.81;43.24
34103;BME280;20381;54.498;18.206;2022-08-03T07:10:27;99842.19;;;33.87;43.07
34103;BME280;20381;54.498;18.206;2022-08-03T07:12:55;99846.63;;;34.06;42.18
34103;BME280;20381;54.498;18.206;2022-08-03T07:15:24;99844.34;;;34.03;41.91
34103;BME280;20381;54.498;18.206;2022-08-03T07:17:51;99844.50;;;34.08;40.97
34103;BME280;20381;54.498;18.206;2022-08-03T07:20:18;99842.73;;;34.12;40.95
34103;BME280;20381;54.498;18.206;2022-08-03T07:22:45;99841.05;;;34.20;40.14
34103;BME280;20381;54.498;18.206;2022-08-03T07:25:12;99844.09;;;34.21;40.02
34103;BME280;20381;54.498;18.206;2022-08-03T07:27:44;99843.34;;;34.32;39.37
34103;BME280;20381;54.498;18.206;2022-08-03T07:30:13;99837.60;;;34.31;39.21
34103;BME280;20381;54.498;18.206;2022-08-03T07:32:40;99845.60;;;34.26;38.82
34103;BME280;20381;54.498;18.206;2022-08-03T07:35:08;99822.44;;;33.23;38.01
34103;BME280;20381;54.498;18.206;2022-08-03T07:37:36;99822.44;;;33.23;38.01
34103;BME280;20381;54.498;18.206;2022-08-03T07:40:04;99853.84;;;32.86;37.48
34103;BME280;20381;54.498;18.206;2022-08-03T07:42:32;99850.42;;;32.39;37.28
34103;BME280;20381;54.498;18.206;2022-08-03T07:44:59;99848.81;;;31.98;37.12
34103;BME280;20381;54.498;18.206;2022-08-03T07:47:28;99848.47;;;31.70;37.13
34103;BME280;20381;54.498;18.206;2022-08-03T07:49:56;99839.95;;;31.47;36.83
34103;BME280;20381;54.498;18.206;2022-08-03T07:52:23;99846.64;;;31.27;36.65
34103;BME280;20381;54.498;18.206;2022-08-03T07:55:08;99848.24;;;31.08;36.22
34103;BME280;20381;54.498;18.206;2022-08-03T07:57:36;99845.54;;;30.60;36.29
34103;BME280;20381;54.498;18.206;2022-08-03T08:00:11;99838.02;;;30.48;35.96
34103;BME280;20381;54.498;18.206;2022-08-03T08:02:40;99840.48;;;29.87;35.25
34103;BME280;20381;54.498;18.206;2022-08-03T08:05:08;99837.86;;;29.40;35.37
34103;BME280;20381;54.498;18.206;2022-08-03T08:07:36;99847.59;;;29.19;36.03
34103;BME280;20381;54.498;18.206;2022-08-03T08:10:05;99842.22;;;29.30;36.08
34103;BME280;20381;54.498;18.206;2022-08-03T08:12:33;99843.44;;;29.28;35.80
34103;BME280;20381;54.498;18.206;2022-08-03T08:15:00;99836.25;;;29.35;36.32
34103;BME280;20381;54.498;18.206;2022-08-03T08:17:27;99842.59;;;29.59;36.44
34103;BME280;20381;54.498;18.206;2022-08-03T08:19:54;99838.32;;;29.76;36.54
34103;BME280;20381;54.498;18.206;2022-08-03T08:22:21;99843.03;;;29.95;36.40
34103;BME280;20381;54.498;18.206;2022-08-03T08:24:48;99841.27;;;29.81;36.15
34103;BME280;20381;54.498;18.206;2022-08-03T08:27:14;99843.70;;;29.76;36.09
34103;BME280;20381;54.498;18.206;2022-08-03T08:29:41;99842.05;;;29.75;35.95
34103;BME280;20381;54.498;18.206;2022-08-03T08:32:07;99842.67;;;29.77;36.35
34103;BME280;20381;54.498;18.206;2022-08-03T08:34:36;99843.01;;;29.78;36.16
34103;BME280;20381;54.498;18.206;2022-08-03T08:37:03;99839.97;;;29.77;36.35
34103;BME280;20381;54.498;18.206;2022-08-03T08:39:31;99842.00;;;29.96;36.47
34103;BME280;20381;54.498;18.206;2022-08-03T08:41:58;99843.20;;;30.04;36.49
34103;BME280;20381;54.498;18.206;2022-08-03T08:44:25;99840.66;;;30.14;36.32
34103;BME280;20381;54.498;18.206;2022-08-03T08:46:52;99836.31;;;30.13;36.35
34103;BME280;20381;54.498;18.206;2022-08-03T08:49:22;99836.62;;;30.14;36.31
34103;BME280;20381;54.498;18.206;2022-08-03T08:51:52;99836.47;;;30.04;36.31
34103;BME280;20381;54.498;18.206;2022-08-03T08:54:21;99837.75;;;30.08;36.39
34103;BME280;20381;54.498;18.206;2022-08-03T08:56:52;99840.23;;;30.10;36.06
34103;BME280;20381;54.498;18.206;2022-08-03T08:59:21;99830.95;;;30.02;36.18
34103;BME280;20381;54.498;18.206;2022-08-03T09:01:48;99834.75;;;29.97;36.07
34103;BME280;20381;54.498;18.206;2022-08-03T09:04:15;99836.05;;;29.90;36.06
34103;BME280;20381;54.498;18.206;2022-08-03T09:06:42;99831.63;;;29.93;35.97
34103;BME280;20381;54.498;18.206;2022-08-03T09:09:10;99830.61;;;29.94;36.08
34103;BME280;20381;54.498;18.206;2022-08-03T09:11:41;99833.98;;;30.03;36.16
34103;BME280;20381;54.498;18.206;2022-08-03T09:14:10;99829.28;;;30.11;35.87
34103;BME280;20381;54.498;18.206;2022-08-03T09:16:37;99830.77;;;30.03;35.99
34103;BME280;20381;54.498;18.206;2022-08-03T09:19:12;99837.29;;;30.05;36.09
34103;BME280;20381;54.498;18.206;2022-08-03T09:21:39;99836.55;;;30.00;35.89
34103;BME280;20381;54.498;18.206;2022-08-03T09:24:06;99833.13;;;30.02;35.96
34103;BME280;20381;54.498;18.206;2022-08-03T09:26:37;99830.61;;;29.94;35.77
34103;BME280;20381;54.498;18.206;2022-08-03T09:29:07;99834.56;;;29.98;35.80
34103;BME280;20381;54.498;18.206;2022-08-03T09:31:41;99830.23;;;29.86;35.72
34103;BME280;20381;54.498;18.206;2022-08-03T09:34:10;99837.36;;;29.83;35.86
34103;BME280;20381;54.498;18.206;2022-08-03T09:39:12;99833.67;;;29.91;35.65
34103;BME280;20381;54.498;18.206;2022-08-03T09:41:42;99836.53;;;29.83;35.58
34103;BME280;20381;54.498;18.206;2022-08-03T09:44:10;99840.37;;;29.74;35.54
34103;BME280;20381;54.498;18.206;2022-08-03T09:46:51;99840.93;;;29.80;35.71
34103;BME280;20381;54.498;18.206;2022-08-03T09:49:19;99839.41;;;29.81;35.59
34103;BME280;20381;54.498;18.206;2022-08-03T09:51:47;99835.89;;;29.81;35.50
34103;BME280;20381;54.498;18.206;2022-08-03T09:54:25;99838.19;;;29.84;35.43
34103;BME280;20381;54.498;18.206;2022-08-03T09:56:53;99839.22;;;29.83;35.41
34103;BME280;20381;54.498;18.206;2022-08-03T09:59:28;99838.45;;;29.68;35.31
34103;BME280;20381;54.498;18.206;2022-08-03T10:01:56;99840.99;;;29.54;35.40
34103;BME280;20381;54.498;18.206;2022-08-03T10:04:25;99840.86;;;29.62;35.54
34103;BME280;20381;54.498;18.206;2022-08-03T10:07:06;99840.11;;;29.69;35.47
34103;BME280;20381;54.498;18.206;2022-08-03T10:09:35;99843.84;;;29.68;35.40
34103;BME280;20381;54.498;18.206;2022-08-03T10:12:11;99839.36;;;29.75;35.45
34103;BME280;20381;54.498;18.206;2022-08-03T10:14:39;99839.44;;;29.88;35.39
34103;BME280;20381;54.498;18.206;2022-08-03T10:17:08;99833.20;;;29.81;35.36
34103;BME280;20381;54.498;18.206;2022-08-03T10:19:35;99835.49;;;29.84;35.53
34103;BME280;20381;54.498;18.206;2022-08-03T10:22:06;99838.15;;;30.05;35.65
34103;BME280;20381;54.498;18.206;2022-08-03T10:24:34;99829.83;;;30.18;35.29
34103;BME280;20381;54.498;18.206;2022-08-03T10:27:04;99830.95;;;30.02;35.19
34103;BME280;20381;54.498;18.206;2022-08-03T10:29:39;99831.05;;;29.98;35.24
34103;BME280;20381;54.498;18.206;2022-08-03T10:32:13;99829.03;;;30.06;35.32
34103;BME280;20381;54.498;18.206;2022-08-03T10:34:41;99830.23;;;30.15;35.11
34103;BME280;20381;54.498;18.206;2022-08-03T10:37:09;99827.20;;;30.14;34.99
34103;BME280;20381;54.498;18.206;2022-08-03T10:39:38;99827.99;;;30.07;34.92
34103;BME280;20381;54.498;18.206;2022-08-03T10:42:10;99829.16;;;30.09;34.89
34103;BME280;20381;54.498;18.206;2022-08-03T10:44:38;99829.28;;;30.11;34.84
34103;BME280;20381;54.498;18.206;2022-08-03T10:47:08;99827.17;;;30.07;34.43
34103;BME280;20381;54.498;18.206;2022-08-03T10:49:36;99828.68;;;29.88;34.53
34103;BME280;20381;54.498;18.206;2022-08-03T10:52:04;99829.47;;;29.82;34.38
34103;BME280;20381;54.498;18.206;2022-08-03T10:57:29;99825.95;;;29.71;34.27
34103;BME280;20381;54.498;18.206;2022-08-03T10:59:59;99824.36;;;29.65;33.93
34103;BME280;20381;54.498;18.206;2022-08-03T11:05:27;99830.31;;;29.61;34.23
34103;BME280;20381;54.498;18.206;2022-08-03T11:08:28;99819.73;;;29.81;34.21
34103;BME280;20381;54.498;18.206;2022-08-03T11:11:02;99818.50;;;29.94;34.24
34103;BME280;20381;54.498;18.206;2022-08-03T11:13:34;99822.20;;;29.93;34.08
34103;BME280;20381;54.498;18.206;2022-08-03T11:16:03;99816.66;;;29.84;33.95
34103;BME280;20381;54.498;18.206;2022-08-03T11:18:32;99822.43;;;29.81;34.14
34103;BME280;20381;54.498;18.206;2022-08-03T11:20:59;99814.64;;;29.93;34.12
34103;BME280;20381;54.498;18.206;2022-08-03T11:23:46;99814.61;;;29.86;33.73
34103;BME280;20381;54.498;18.206;2022-08-03T11:26:19;99807.54;;;29.85;33.91
34103;BME280;20381;54.498;18.206;2022-08-03T11:28:49;99807.00;;;29.96;34.13
34103;BME280;20381;54.498;18.206;2022-08-03T11:34:05;99805.90;;;30.01;33.92
34103;BME280;20381;54.498;18.206;2022-08-03T11:39:49;99807.73;;;30.11;33.94
34103;BME280;20381;54.498;18.206;2022-08-03T11:44:57;99805.23;;;30.10;33.62
34103;BME280;20381;54.498;18.206;2022-08-03T11:47:27;99800.06;;;30.08;33.54
34103;BME280;20381;54.498;18.206;2022-08-03T11:49:56;99797.95;;;30.04;33.52
34103;BME280;20381;54.498;18.206;2022-08-03T11:52:37;99800.83;;;30.02;33.56
34103;BME280;20381;54.498;18.206;2022-08-03T11:55:10;99801.86;;;30.01;33.47
34103;BME280;20381;54.498;18.206;2022-08-03T11:57:38;99802.50;;;30.03;33.48
34103;BME280;20381;54.498;18.206;2022-08-03T12:00:26;99801.86;;;30.01;33.44
34103;BME280;20381;54.498;18.206;2022-08-03T12:03:06;99796.77;;;29.85;33.16
34103;BME280;20381;54.498;18.206;2022-08-03T12:05:40;99793.83;;;29.80;33.20
34103;BME280;20381;54.498;18.206;2022-08-03T12:08:09;99793.61;;;29.75;33.32
34103;BME280;20381;54.498;18.206;2022-08-03T12:10:37;99791.14;;;29.80;33.18
34103;BME280;20381;54.498;18.206;2022-08-03T12:13:06;99786.16;;;29.77;33.21
34103;BME280;20381;54.498;18.206;2022-08-03T12:15:36;99787.11;;;29.80;33.32
34103;BME280;20381;54.498;18.206;2022-08-03T12:18:15;99781.13;;;29.95;33.34
34103;BME280;20381;54.498;18.206;2022-08-03T12:20:44;99780.20;;;29.99;33.24
34103;BME280;20381;54.498;18.206;2022-08-03T12:23:11;99783.28;;;29.78;32.91
34103;BME280;20381;54.498;18.206;2022-08-03T12:25:40;99779.77;;;29.78;33.20
34103;BME280;20381;54.498;18.206;2022-08-03T12:28:10;99790.23;;;29.94;33.23
34103;BME280;20381;54.498;18.206;2022-08-03T12:30:47;99787.61;;;30.07;33.20
34103;BME280;20381;54.498;18.206;2022-08-03T12:33:17;99775.91;;;30.22;33.08
34103;BME280;20381;54.498;18.206;2022-08-03T12:36:01;99781.11;;;30.23;32.75
34103;BME280;20381;54.498;18.206;2022-08-03T12:38:19;99775.67;;;30.17;32.83
34103;BME280;20381;54.498;18.206;2022-08-03T12:40:58;99770.13;;;30.25;32.79
34103;BME280;20381;54.498;18.206;2022-08-03T12:43:26;99765.78;;;30.24;32.38
34103;BME280;20381;54.498;18.206;2022-08-03T12:46:05;99769.18;;;30.22;32.51
34103;BME280;20381;54.498;18.206;2022-08-03T12:48:34;99766.84;;;30.29;32.17
34103;BME280;20381;54.498;18.206;2022-08-03T12:51:09;99765.43;;;30.33;32.32
34103;BME280;20381;54.498;18.206;2022-08-03T12:53:36;99763.80;;;30.39;32.08
34103;BME280;20381;54.498;18.206;2022-08-03T12:56:04;99759.36;;;30.42;32.00
34103;BME280;20381;54.498;18.206;2022-08-03T12:58:33;99756.73;;;30.38;32.01
34103;BME280;20381;54.498;18.206;2022-08-03T13:01:03;99760.09;;;30.23;31.51
34103;BME280;20381;54.498;18.206;2022-08-03T13:03:48;99770.13;;;30.25;31.82
34103;BME280;20381;54.498;18.206;2022-08-03T13:06:21;99766.26;;;30.34;31.81
34103;BME280;20381;54.498;18.206;2022-08-03T13:08:49;99762.47;;;30.46;31.74
34103;BME280;20381;54.498;18.206;2022-08-03T13:11:28;99759.48;;;30.51;31.68
34103;BME280;20381;54.498;18.206;2022-08-03T13:13:58;99763.88;;;30.59;31.79
34103;BME280;20381;54.498;18.206;2022-08-03T13:16:28;99762.31;;;30.61;31.55
34103;BME280;20381;54.498;18.206;2022-08-03T13:18:55;99766.45;;;30.57;31.62
34103;BME280;20381;54.498;18.206;2022-08-03T13:21:21;99757.20;;;30.48;31.59
34103;BME280;20381;54.498;18.206;2022-08-03T13:23:49;99751.27;;;30.42;31.45
34103;BME280;20381;54.498;18.206;2022-08-03T13:26:16;99750.52;;;30.38;31.54
34103;BME280;20381;54.498;18.206;2022-08-03T13:28:43;99748.58;;;30.42;31.43
34103;BME280;20381;54.498;18.206;2022-08-03T13:31:10;99749.05;;;30.35;31.04
34103;BME280;20381;54.498;18.206;2022-08-03T13:33:36;99749.55;;;30.28;31.30